Terminal Aerodrome Forecast
Issued by NWS

Home | Current Version | Previous Version | Text Only | Print | Product List | Glossary On
Versions: 1 2 3 4 5 6 7 8 9 10 11 12 13 14 15
000
FTUS45 KRIW 221400 AAB
TAFJAC
TAF AMD
KJAC 221449Z 2215/2312 20014KT 1 1/2SM -SN SCT008 OVC012
      WS020/24040KT
      TEMPO 2215/2218 3/4SM -SN SCT003 OVC006
     FM222100 23018G30KT 1SM -SN BLSN OVC008
     FM230200 24014G20KT 2SM -SHSN SCT008 OVC015
      AMD LTD TO CLD VIS AND WIND=

USA.gov is the U.S. government's official web portal to all federal, state and local government web resources and services.